Time;durP1;ratioP1;P1;durP2;ratioP2;P2;SDS_P1;SDS_P2;PMS_P1;PMS_P2;Temp;Humidity;BMP_temperature;BMP_pressure;BME280_temperature;BME280_humidity;BME280_pressure;Samples;Min_cycle;Max_cycle;Signal;HPM_P1;HPM_P2
2022/08/08 00:00:13;;;;;;;1.70;1.60;;;26.90;51.70;;;;;;5046282;28;20041;-60
2022/08/08 00:03:32;;;;;;;2.08;1.98;;;27.00;51.80;;;;;;5046073;28;20299;-61
2022/08/08 00:06:06;;;;;;;1.70;1.60;;;26.90;51.70;;;;;;5046182;28;20126;-61
2022/08/08 00:08:52;;;;;;;1.58;1.50;;;26.90;51.70;;;;;;5044964;28;20095;-61
2022/08/08 00:11:59;;;;;;;2.03;1.88;;;26.90;51.70;;;;;;5046248;28;20044;-60
2022/08/08 00:14:57;;;;;;;1.88;1.77;;;26.90;51.70;;;;;;5044701;28;20149;-61
2022/08/08 00:17:50;;;;;;;2.17;2.08;;;26.90;51.70;;;;;;5044834;28;20168;-60
2022/08/08 00:20:55;;;;;;;2.75;2.00;;;26.90;51.80;;;;;;5045681;28;20045;-61
2022/08/08 00:23:34;;;;;;;1.92;1.83;;;26.90;51.80;;;;;;5045505;28;20501;-60
2022/08/08 00:26:14;;;;;;;1.75;1.65;;;26.90;51.80;;;;;;5045378;28;20502;-61
2022/08/08 00:29:09;;;;;;;1.80;1.70;;;26.90;51.80;;;;;;5045896;28;20410;-61
2022/08/08 00:31:46;;;;;;;1.90;1.80;;;26.90;51.80;;;;;;5045429;28;20045;-61
2022/08/08 00:35:09;;;;;;;1.63;1.60;;;26.90;51.80;;;;;;5045058;28;20051;-61
2022/08/08 00:38:17;;;;;;;1.88;1.77;;;26.90;51.80;;;;;;5045429;28;20337;-60
2022/08/08 00:41:42;;;;;;;1.80;1.73;;;26.80;51.80;;;;;;5033841;28;20134;-61
2022/08/08 00:44:47;;;;;;;1.77;1.67;;;26.80;51.80;;;;;;5040393;28;20745;-61
2022/08/08 00:47:41;;;;;;;1.70;1.60;;;26.80;51.80;;;;;;5045300;28;20442;-60
2022/08/08 00:51:02;;;;;;;1.58;1.48;;;26.80;51.80;;;;;;5045421;28;20096;-60
2022/08/08 00:54:15;;;;;;;1.40;1.40;;;26.80;51.80;;;;;;5044317;28;20135;-60
2022/08/08 00:57:23;;;;;;;1.77;1.67;;;26.80;51.90;;;;;;5044878;28;20110;-61
2022/08/08 01:00:30;;;;;;;1.95;1.85;;;26.80;51.90;;;;;;5045546;28;20049;-61
2022/08/08 01:03:41;;;;;;;2.08;1.98;;;26.80;51.90;;;;;;5043653;28;20053;-61
2022/08/08 01:07:02;;;;;;;2.00;1.90;;;26.80;51.90;;;;;;5044542;28;20185;-61
2022/08/08 01:10:04;;;;;;;1.88;1.77;;;26.80;51.90;;;;;;5043491;28;20425;-61
2022/08/08 01:13:14;;;;;;;1.70;1.60;;;26.80;51.90;;;;;;5045602;28;20126;-61
2022/08/08 01:16:28;;;;;;;1.70;1.60;;;26.80;51.90;;;;;;5040252;28;20405;-61
2022/08/08 01:19:36;;;;;;;1.60;1.50;;;26.80;51.90;;;;;;5045289;28;20067;-61
2022/08/08 01:22:57;;;;;;;1.90;1.80;;;26.80;51.90;;;;;;5044569;28;20311;-61
2022/08/08 01:26:03;;;;;;;1.52;1.48;;;26.80;52.00;;;;;;5045365;28;20334;-61
2022/08/08 01:29:15;;;;;;;1.85;1.75;;;26.70;51.90;;;;;;5047650;28;20098;-61
2022/08/08 01:32:19;;;;;;;1.60;1.50;;;26.70;52.00;;;;;;5049563;28;20403;-61
2022/08/08 01:35:16;;;;;;;1.80;1.70;;;26.70;52.00;;;;;;5047669;28;20071;-61
2022/08/08 01:38:22;;;;;;;1.30;1.30;;;26.80;52.00;;;;;;5048445;28;20081;-61
2022/08/08 01:41:11;;;;;;;1.55;1.50;;;26.70;52.00;;;;;;5047475;28;20049;-61
2022/08/08 01:43:48;;;;;;;1.75;1.65;;;26.70;52.00;;;;;;5049179;28;20470;-61
2022/08/08 01:46:51;;;;;;;1.70;1.60;;;26.70;52.00;;;;;;5048645;28;20535;-61
2022/08/08 01:49:43;;;;;;;1.45;1.40;;;26.70;52.00;;;;;;5047543;28;20052;-61
2022/08/08 01:52:31;;;;;;;1.45;1.40;;;26.70;52.00;;;;;;5048960;28;20122;-61
2022/08/08 01:55:41;;;;;;;1.42;1.33;;;26.80;52.00;;;;;;5048981;28;20143;-61
2022/08/08 01:58:56;;;;;;;2.45;1.73;;;26.70;52.00;;;;;;5048015;28;20045;-61
2022/08/08 02:01:53;;;;;;;1.30;1.25;;;26.70;52.00;;;;;;5047759;28;20502;-61
2022/08/08 02:04:49;;;;;;;1.30;1.30;;;26.70;52.00;;;;;;5048472;28;20134;-61
2022/08/08 02:07:52;;;;;;;1.30;1.30;;;26.70;52.00;;;;;;5048272;28;20041;-61
2022/08/08 02:10:58;;;;;;;1.20;1.20;;;26.70;52.00;;;;;;5048401;28;20049;-61
2022/08/08 02:13:41;;;;;;;1.17;1.17;;;26.70;52.00;;;;;;5048421;28;20048;-61
2022/08/08 02:16:45;;;;;;;1.50;1.40;;;26.70;52.00;;;;;;5048104;28;20708;-61
2022/08/08 02:19:51;;;;;;;1.38;1.38;;;26.70;52.00;;;;;;5043549;28;20044;-61
2022/08/08 02:23:00;;;;;;;1.35;1.30;;;26.70;52.00;;;;;;5047551;28;20532;-61
2022/08/08 02:25:46;;;;;;;1.52;1.42;;;26.70;52.00;;;;;;5046747;28;20048;-61
2022/08/08 02:28:43;;;;;;;1.85;1.75;;;26.70;52.00;;;;;;5047738;28;20136;-61
2022/08/08 02:31:41;;;;;;;1.40;1.30;;;26.70;52.00;;;;;;5048186;28;20487;-61
2022/08/08 02:35:02;;;;;;;1.25;1.25;;;26.70;52.00;;;;;;5048155;28;20052;-62
2022/08/08 02:38:17;;;;;;;1.40;1.40;;;26.70;52.00;;;;;;5048485;28;20049;-61
2022/08/08 02:41:31;;;;;;;1.30;1.30;;;26.70;52.00;;;;;;5046215;28;20049;-61
2022/08/08 02:44:51;;;;;;;1.38;1.30;;;26.70;52.10;;;;;;5046796;28;20107;-61
2022/08/08 02:48:03;;;;;;;1.65;1.55;;;26.70;52.10;;;;;;5047238;28;20045;-61
2022/08/08 02:51:06;;;;;;;1.50;1.40;;;26.70;52.10;;;;;;5042796;28;20490;-61
2022/08/08 02:54:17;;;;;;;1.80;1.70;;;26.60;52.00;;;;;;5047232;28;20045;-61
2022/08/08 02:57:24;;;;;;;1.48;1.38;;;26.60;52.00;;;;;;5035108;28;20489;-61
2022/08/08 03:00:18;;;;;;;1.45;1.00;;;26.60;52.00;;;;;;5046720;28;20075;-61
2022/08/08 03:03:39;;;;;;;1.13;1.13;;;26.60;52.00;;;;;;5046038;28;20095;-61
2022/08/08 03:06:50;;;;;;;1.52;1.42;;;26.60;52.10;;;;;;5047278;28;20044;-61
2022/08/08 03:09:48;;;;;;;1.05;1.05;;;26.70;52.10;;;;;;5031349;28;20060;-61
2022/08/08 03:12:49;;;;;;;1.30;1.30;;;26.60;52.10;;;;;;5047463;28;20122;-62
2022/08/08 03:16:00;;;;;;;1.20;1.20;;;26.60;52.10;;;;;;5046659;28;20048;-61
2022/08/08 03:18:56;;;;;;;1.45;1.45;;;26.60;52.10;;;;;;5046490;28;20123;-61
2022/08/08 03:21:24;;;;;;;1.42;1.42;;;26.60;52.10;;;;;;5046299;28;20049;-61
2022/08/08 03:24:07;;;;;;;1.40;1.35;;;26.60;52.10;;;;;;5043745;28;20137;-61
2022/08/08 03:26:42;;;;;;;1.27;1.10;;;26.60;52.10;;;;;;5046787;28;20427;-61
2022/08/08 03:29:17;;;;;;;1.30;1.30;;;26.60;52.10;;;;;;5046561;28;20106;-61
2022/08/08 03:34:56;;;;;;;1.50;1.25;;;26.60;52.10;;;;;;5046331;28;20037;-61
2022/08/08 03:37:24;;;;;;;1.20;1.20;;;26.60;52.00;;;;;;5046387;28;20056;-61
2022/08/08 03:40:11;;;;;;;1.70;1.33;;;26.60;52.00;;;;;;5046438;28;20095;-61
2022/08/08 03:42:58;;;;;;;1.35;1.30;;;26.60;52.00;;;;;;5045535;28;20140;-61
2022/08/08 03:45:44;;;;;;;1.25;1.20;;;26.60;52.00;;;;;;5045191;28;20051;-61
2022/08/08 03:48:31;;;;;;;1.52;1.52;;;26.60;52.00;;;;;;5046138;28;20065;-61
2022/08/08 03:51:18;;;;;;;1.17;1.10;;;26.60;51.90;;;;;;5045516;28;20076;-61
2022/08/08 03:54:06;;;;;;;1.60;1.50;;;26.60;51.90;;;;;;5041584;28;20449;-61
2022/08/08 03:56:34;;;;;;;1.10;1.10;;;26.60;51.90;;;;;;5046413;28;20053;-61
2022/08/08 03:59:01;;;;;;;1.48;1.38;;;26.60;51.90;;;;;;5046136;28;20049;-61
2022/08/08 04:01:37;;;;;;;1.40;1.40;;;26.60;51.90;;;;;;5045687;28;20386;-61
2022/08/08 04:04:24;;;;;;;1.17;1.17;;;26.60;51.90;;;;;;5044930;28;20451;-61
2022/08/08 04:06:58;;;;;;;1.13;1.13;;;26.70;51.90;;;;;;5045921;28;20136;-61
2022/08/08 04:09:28;;;;;;;1.40;1.30;;;26.60;51.80;;;;;;5058398;28;20424;-61
2022/08/08 04:12:15;;;;;;;1.30;1.20;;;26.60;51.80;;;;;;5066218;28;20048;-61
2022/08/08 04:14:42;;;;;;;1.40;1.30;;;26.70;51.90;;;;;;5065829;28;20048;-61
2022/08/08 04:17:11;;;;;;;1.60;1.50;;;26.70;51.80;;;;;;5064987;28;20405;-61
2022/08/08 04:19:58;;;;;;;0.90;0.90;;;26.70;51.80;;;;;;5065829;28;20394;-61
2022/08/08 04:22:30;;;;;;;1.30;1.30;;;26.70;51.80;;;;;;5065149;28;20460;-61
2022/08/08 04:24:59;;;;;;;1.33;1.23;;;26.70;51.70;;;;;;5061496;28;20037;-61
2022/08/08 04:27:28;;;;;;;1.20;1.20;;;26.70;51.80;;;;;;5043277;28;20159;-62
2022/08/08 04:30:16;;;;;;;1.73;1.63;;;26.70;51.70;;;;;;5044847;28;20045;-61
2022/08/08 04:32:46;;;;;;;1.30;1.27;;;26.70;51.70;;;;;;5044880;28;20049;-61
2022/08/08 04:35:18;;;;;;;1.30;1.20;;;26.70;51.70;;;;;;5044196;28;20041;-61
2022/08/08 04:37:49;;;;;;;1.45;1.35;;;26.70;51.60;;;;;;5045282;28;20218;-61
2022/08/08 04:40:17;;;;;;;0.88;0.88;;;26.70;51.60;;;;;;5045552;28;20041;-61
2022/08/08 04:42:50;;;;;;;1.40;1.30;;;26.70;51.50;;;;;;5044977;28;20139;-61
2022/08/08 04:45:24;;;;;;;1.20;1.20;;;26.80;51.60;;;;;;5048737;28;20110;-61
2022/08/08 04:47:53;;;;;;;2.28;1.20;;;26.80;51.50;;;;;;5045542;28;20210;-61
2022/08/08 04:50:20;;;;;;;1.13;1.13;;;26.80;51.50;;;;;;5045381;28;20045;-61
2022/08/08 04:52:53;;;;;;;1.35;1.30;;;26.80;51.40;;;;;;5044359;28;20517;-61
2022/08/08 04:55:32;;;;;;;1.05;1.02;;;26.80;51.40;;;;;;5045033;28;20045;-61
2022/08/08 04:58:19;;;;;;;1.50;1.40;;;26.80;51.40;;;;;;5041177;28;20134;-61
2022/08/08 05:00:48;;;;;;;1.33;1.23;;;26.90;51.30;;;;;;5045354;28;20130;-61
2022/08/08 05:03:17;;;;;;;1.20;1.20;;;26.90;51.20;;;;;;5045205;28;20079;-62
2022/08/08 05:06:04;;;;;;;1.58;1.20;;;26.90;51.10;;;;;;5029027;28;20102;-61
2022/08/08 05:08:41;;;;;;;3.08;1.40;;;26.90;50.90;;;;;;5045275;28;20116;-61
2022/08/08 05:11:12;;;;;;;1.48;1.17;;;26.90;50.70;;;;;;5044755;28;20049;-61
2022/08/08 05:13:50;;;;;;;1.83;1.40;;;26.80;50.60;;;;;;5034699;28;20036;-62
2022/08/08 05:16:25;;;;;;;1.73;1.63;;;26.70;50.60;;;;;;5033230;28;20045;-61
2022/08/08 05:19:13;;;;;;;1.00;0.95;;;26.50;50.70;;;;;;5037978;28;20080;-62
2022/08/08 05:22:00;;;;;;;1.35;1.25;;;26.20;50.90;;;;;;5029773;28;20144;-61
2022/08/08 05:24:28;;;;;;;1.35;1.27;;;25.90;50.80;;;;;;5034621;28;20110;-62
2022/08/08 05:26:57;;;;;;;1.23;1.13;;;25.60;50.30;;;;;;5032921;28;20049;-62
2022/08/08 05:29:25;;;;;;;1.90;1.05;;;25.30;49.70;;;;;;5024579;28;20049;-61
2022/08/08 05:31:55;;;;;;;2.22;1.40;;;24.90;49.30;;;;;;5030178;28;20049;-61
2022/08/08 05:34:48;;;;;;;1.58;1.38;;;24.60;49.10;;;;;;5044833;28;20060;-63
2022/08/08 05:37:21;;;;;;;1.30;1.05;;;24.20;48.90;;;;;;5040816;28;20140;-62
2022/08/08 05:40:06;;;;;;;2.15;1.38;;;23.80;49.00;;;;;;5036774;28;20509;-62
2022/08/08 05:42:44;;;;;;;2.70;1.50;;;23.50;48.80;;;;;;5035011;28;20048;-61
2022/08/08 05:45:16;;;;;;;4.95;1.23;;;23.10;48.90;;;;;;5035249;28;20049;-61
2022/08/08 05:48:00;;;;;;;1.48;1.30;;;22.80;49.30;;;;;;5027303;28;20107;-61
2022/08/08 05:50:36;;;;;;;2.95;1.35;;;22.50;49.30;;;;;;5036705;28;20053;-62
2022/08/08 05:53:06;;;;;;;2.30;1.13;;;22.20;49.90;;;;;;5033900;28;20053;-61
2022/08/08 05:55:55;;;;;;;1.95;1.33;;;22.00;50.80;;;;;;5037297;28;20341;-60
2022/08/08 05:58:43;;;;;;;1.73;1.10;;;21.80;51.00;;;;;;5031666;28;20148;-61
2022/08/08 06:01:30;;;;;;;1.73;1.25;;;21.60;51.20;;;;;;5032539;28;20049;-60
2022/08/08 06:04:24;;;;;;;4.05;1.33;;;21.40;51.30;;;;;;5032638;28;20134;-61
2022/08/08 06:06:54;;;;;;;2.10;1.20;;;21.30;51.60;;;;;;5039485;28;20051;-61
2022/08/08 06:09:33;;;;;;;2.45;1.10;;;21.10;51.90;;;;;;5043198;28;20558;-62
2022/08/08 06:12:23;;;;;;;3.78;1.50;;;21.10;52.10;;;;;;5034392;28;20057;-62
2022/08/08 06:15:00;;;;;;;1.52;1.40;;;20.90;52.20;;;;;;5037405;28;20555;-61
2022/08/08 06:17:32;;;;;;;2.15;1.30;;;21.00;52.40;;;;;;5024708;28;20045;-62
2022/08/08 06:20:19;;;;;;;1.38;1.05;;;20.90;52.10;;;;;;5036169;28;20497;-60
2022/08/08 06:22:47;;;;;;;1.00;0.93;;;20.80;52.30;;;;;;5035650;28;20147;-61
2022/08/08 06:25:16;;;;;;;0.98;0.98;;;20.80;52.40;;;;;;5041736;28;21325;-61
2022/08/08 06:28:02;;;;;;;3.38;1.20;;;20.80;52.50;;;;;;5039285;28;20045;-61
2022/08/08 06:30:33;;;;;;;1.45;1.38;;;20.70;52.60;;;;;;5039038;28;20041;-60
2022/08/08 06:33:04;;;;;;;2.72;1.23;;;20.70;53.40;;;;;;5037468;28;20460;-72
2022/08/08 06:35:38;;;;;;;5.90;1.23;;;20.70;52.20;;;;;;5027287;28;20077;-72
2022/08/08 06:38:30;;;;;;;4.38;1.10;;;20.70;51.00;;;;;;5041235;28;20049;-73
2022/08/08 06:41:05;;;;;;;2.25;1.15;;;20.80;51.20;;;;;;5038067;28;20552;-74
2022/08/08 06:43:35;;;;;;;4.18;1.30;;;20.80;51.80;;;;;;5039863;28;20483;-70
2022/08/08 06:46:05;;;;;;;8.50;1.35;;;20.80;52.20;;;;;;5037286;28;20042;-70
2022/08/08 06:48:35;;;;;;;2.97;1.10;;;20.90;51.50;;;;;;5033780;28;20573;-71
2022/08/08 06:51:05;;;;;;;12.32;1.63;;;20.90;51.80;;;;;;5034936;28;20049;-64
2022/08/08 06:53:36;;;;;;;5.53;1.30;;;20.80;51.50;;;;;;5039710;28;20089;-64
2022/08/08 06:56:07;;;;;;;4.28;1.40;;;20.80;52.20;;;;;;5039393;28;20052;-63
2022/08/08 06:58:35;;;;;;;6.07;1.20;;;20.70;52.30;;;;;;5042713;28;20391;-63
2022/08/08 07:01:09;;;;;;;5.45;1.23;;;20.70;53.00;;;;;;5039067;28;20055;-63
2022/08/08 07:04:07;;;;;;;1.67;1.00;;;20.70;52.90;;;;;;5037494;28;20045;-63
2022/08/08 07:06:56;;;;;;;3.13;0.95;;;20.70;52.90;;;;;;5039482;28;20116;-64
2022/08/08 07:09:47;;;;;;;1.52;1.10;;;20.50;53.00;;;;;;5037884;28;20106;-63
2022/08/08 07:12:44;;;;;;;3.10;0.98;;;20.50;53.20;;;;;;5039134;28;20492;-64
2022/08/08 07:15:15;;;;;;;0.77;0.77;;;20.50;53.30;;;;;;5036954;28;20054;-64
2022/08/08 07:18:04;;;;;;;2.50;1.00;;;20.50;53.40;;;;;;5061630;28;20037;-63
2022/08/08 07:21:02;;;;;;;1.35;0.93;;;20.50;53.40;;;;;;5034714;28;20081;-65
2022/08/08 07:23:42;;;;;;;1.40;1.30;;;20.50;53.40;;;;;;5041019;28;20052;-64
2022/08/08 07:26:33;;;;;;;1.23;0.70;;;20.50;53.00;;;;;;5042169;28;20139;-62
2022/08/08 07:29:03;;;;;;;3.08;0.90;;;20.40;53.60;;;;;;5038435;28;20136;-62
2022/08/08 07:31:39;;;;;;;2.42;1.02;;;20.30;53.90;;;;;;5037707;28;20047;-64
2022/08/08 07:34:09;;;;;;;4.00;1.05;;;20.30;54.00;;;;;;5044234;28;20044;-64
2022/08/08 07:36:48;;;;;;;1.20;0.90;;;20.30;53.80;;;;;;5034941;28;20080;-65
2022/08/08 07:39:29;;;;;;;2.08;1.35;;;20.30;54.00;;;;;;5037986;28;20077;-64
2022/08/08 07:42:19;;;;;;;1.27;0.95;;;20.40;53.70;;;;;;5035722;28;20045;-62
2022/08/08 07:44:59;;;;;;;1.65;0.80;;;20.40;53.70;;;;;;5040536;28;20059;-64
2022/08/08 07:47:28;;;;;;;1.48;0.90;;;20.40;53.80;;;;;;5039766;28;20068;-62
2022/08/08 07:50:06;;;;;;;1.17;1.17;;;20.40;54.00;;;;;;5032753;28;20055;-65
2022/08/08 07:52:34;;;;;;;3.20;1.48;;;20.40;54.50;;;;;;5038620;28;20049;-66
2022/08/08 07:55:16;;;;;;;2.28;1.00;;;20.40;54.30;;;;;;5042364;28;20417;-65
2022/08/08 07:58:00;;;;;;;1.42;1.15;;;20.50;54.20;;;;;;5041220;28;20045;-63
2022/08/08 08:00:38;;;;;;;1.98;1.33;;;20.50;54.20;;;;;;5034478;28;20080;-65
2022/08/08 08:03:10;;;;;;;1.95;1.40;;;20.50;54.10;;;;;;5034267;28;20047;-64
2022/08/08 08:05:51;;;;;;;1.95;1.50;;;20.60;54.10;;;;;;5051479;28;20490;-66
2022/08/08 08:08:25;;;;;;;1.40;1.30;;;20.60;54.00;;;;;;5032373;28;20241;-66
2022/08/08 08:10:56;;;;;;;4.18;1.50;;;20.70;54.00;;;;;;5039590;28;20152;-64
2022/08/08 08:13:51;;;;;;;1.33;1.23;;;20.70;53.70;;;;;;5042774;28;20045;-65
2022/08/08 08:16:38;;;;;;;1.73;1.35;;;20.80;53.80;;;;;;5034155;28;20542;-65
2022/08/08 08:19:11;;;;;;;2.92;1.17;;;20.90;53.90;;;;;;5033970;28;20159;-66
2022/08/08 08:21:44;;;;;;;2.10;1.63;;;20.90;53.50;;;;;;5034081;28;20044;-65
2022/08/08 08:24:26;;;;;;;1.65;1.20;;;20.90;53.40;;;;;;5035932;28;20045;-65
2022/08/08 08:26:59;;;;;;;1.08;1.00;;;20.90;54.00;;;;;;5037803;28;20044;-65
2022/08/08 08:29:29;;;;;;;2.47;1.38;;;20.90;53.90;;;;;;5036900;28;20059;-65
2022/08/08 08:31:56;;;;;;;2.75;1.55;;;20.90;54.00;;;;;;5036056;28;20517;-65
2022/08/08 08:34:29;;;;;;;2.05;1.20;;;21.00;54.00;;;;;;5037144;28;20061;-64
2022/08/08 08:36:58;;;;;;;1.50;1.40;;;21.00;54.10;;;;;;5038791;28;20049;-64
2022/08/08 08:39:29;;;;;;;4.05;1.70;;;21.10;54.10;;;;;;5029782;28;20053;-65
2022/08/08 08:42:17;;;;;;;2.22;1.23;;;21.10;54.00;;;;;;5035779;28;20100;-65
2022/08/08 08:45:06;;;;;;;1.83;1.48;;;21.20;54.00;;;;;;5038352;28;20134;-65
2022/08/08 08:47:37;;;;;;;1.20;1.10;;;21.20;54.10;;;;;;5038426;28;20069;-64
2022/08/08 08:50:10;;;;;;;2.47;1.50;;;21.20;53.90;;;;;;5036893;28;20448;-65
2022/08/08 08:53:01;;;;;;;3.25;1.38;;;21.10;53.80;;;;;;5035324;28;20045;-64
2022/08/08 08:55:34;;;;;;;2.70;1.20;;;21.00;54.20;;;;;;5032452;28;20045;-64
2022/08/08 08:58:08;;;;;;;1.70;1.10;;;20.90;54.70;;;;;;5040234;28;20239;-64
2022/08/08 09:00:37;;;;;;;2.25;1.15;;;20.80;55.00;;;;;;5035708;28;20132;-65
2022/08/08 09:03:26;;;;;;;2.17;1.40;;;20.90;55.10;;;;;;5040245;28;20057;-65
2022/08/08 09:06:16;;;;;;;1.55;1.45;;;20.80;55.70;;;;;;5033107;28;20059;-64
2022/08/08 09:09:01;;;;;;;3.60;1.75;;;20.80;56.00;;;;;;5039743;28;20374;-64
2022/08/08 09:11:31;;;;;;;1.23;1.23;;;20.80;56.20;;;;;;5034573;28;20083;-65
2022/08/08 09:14:00;;;;;;;2.38;1.63;;;20.80;56.50;;;;;;5036452;28;20304;-63
2022/08/08 09:16:29;;;;;;;2.10;1.42;;;20.80;56.70;;;;;;5033483;28;20052;-64
2022/08/08 09:18:59;;;;;;;3.05;0.90;;;20.80;56.80;;;;;;5028304;28;20075;-63
2022/08/08 09:21:28;;;;;;;1.40;1.20;;;20.80;57.10;;;;;;5037926;28;20102;-63
2022/08/08 09:24:15;;;;;;;2.00;1.35;;;20.80;57.30;;;;;;5032495;28;20519;-64
2022/08/08 09:27:01;;;;;;;1.75;1.38;;;20.80;57.40;;;;;;5033878;28;20068;-63
2022/08/08 09:29:36;;;;;;;1.40;1.23;;;20.70;57.60;;;;;;5037784;28;20128;-63
2022/08/08 09:32:36;;;;;;;4.82;1.60;;;20.70;57.60;;;;;;5033099;28;20134;-65
2022/08/08 09:35:09;;;;;;;1.85;1.42;;;20.70;57.70;;;;;;5031596;28;20057;-64
2022/08/08 09:37:52;;;;;;;3.72;2.10;;;20.70;57.60;;;;;;5033058;28;20131;-64
2022/08/08 09:40:30;;;;;;;1.60;1.50;;;20.80;57.70;;;;;;5037842;28;20053;-63
2022/08/08 09:43:28;;;;;;;1.55;1.40;;;20.80;57.60;;;;;;5026968;28;20435;-63
2022/08/08 09:46:16;;;;;;;3.78;1.45;;;20.80;57.60;;;;;;5029488;28;20056;-63
2022/08/08 09:48:58;;;;;;;4.40;1.48;;;20.80;57.70;;;;;;5036584;28;20045;-63
2022/08/08 09:51:54;;;;;;;1.70;1.60;;;20.80;57.90;;;;;;5040399;28;20130;-62
2022/08/08 09:54:42;;;;;;;2.47;1.77;;;20.90;57.90;;;;;;5031324;28;20045;-63
2022/08/08 09:57:14;;;;;;;1.85;1.70;;;20.90;57.90;;;;;;5048072;28;20057;-63
2022/08/08 09:59:44;;;;;;;1.50;1.40;;;20.90;57.90;;;;;;5040610;28;20053;-63
2022/08/08 10:02:37;;;;;;;1.92;1.65;;;21.00;57.90;;;;;;5047603;28;20135;-64
2022/08/08 10:05:11;;;;;;;2.30;1.60;;;21.10;57.70;;;;;;5043723;28;20045;-64
2022/08/08 10:07:54;;;;;;;3.38;1.88;;;21.20;57.50;;;;;;5037438;28;20137;-63
2022/08/08 10:10:35;;;;;;;2.15;1.52;;;21.30;57.20;;;;;;5039277;28;20083;-63
2022/08/08 10:13:21;;;;;;;3.55;1.88;;;21.30;57.10;;;;;;5041832;28;21314;-63
2022/08/08 10:16:02;;;;;;;1.38;1.27;;;21.30;56.80;;;;;;5040990;28;20057;-63
2022/08/08 10:18:34;;;;;;;2.67;2.10;;;21.30;56.70;;;;;;5042534;28;20091;-63
2022/08/08 10:21:06;;;;;;;2.05;1.95;;;21.30;56.40;;;;;;5046739;28;20435;-63
2022/08/08 10:24:03;;;;;;;1.63;1.52;;;21.30;56.10;;;;;;5040533;28;20154;-63
2022/08/08 10:26:48;;;;;;;2.03;1.92;;;21.30;56.10;;;;;;5040930;28;20053;-63
2022/08/08 10:29:57;;;;;;;1.70;1.60;;;21.20;56.00;;;;;;5043658;28;20462;-65
2022/08/08 10:32:40;;;;;;;1.70;1.60;;;21.10;56.10;;;;;;5059205;28;20563;-63
2022/08/08 10:35:21;;;;;;;2.80;1.85;;;21.00;56.20;;;;;;5043402;28;20530;-63
2022/08/08 10:38:14;;;;;;;3.55;1.92;;;20.90;56.50;;;;;;5041185;28;20057;-63
2022/08/08 10:40:48;;;;;;;1.83;1.63;;;20.90;56.40;;;;;;5043649;28;20490;-63
2022/08/08 10:43:16;;;;;;;2.45;1.90;;;20.80;56.50;;;;;;5043048;28;20082;-63
2022/08/08 10:45:50;;;;;;;2.10;1.90;;;20.80;56.90;;;;;;5032533;28;20516;-64
2022/08/08 10:48:32;;;;;;;3.05;1.90;;;20.80;56.90;;;;;;5040019;28;20459;-64
2022/08/08 10:51:23;;;;;;;1.88;1.63;;;20.80;56.80;;;;;;5045564;28;20151;-66
2022/08/08 10:53:54;;;;;;;1.85;1.75;;;20.80;56.50;;;;;;5032070;28;20064;-66
2022/08/08 10:56:25;;;;;;;1.58;1.48;;;20.90;56.50;;;;;;5038805;28;20128;-66
2022/08/08 10:59:09;;;;;;;1.88;1.77;;;20.80;56.30;;;;;;5043626;28;20053;-63
2022/08/08 11:01:45;;;;;;;1.75;1.65;;;20.70;56.10;;;;;;5042089;28;20075;-64
2022/08/08 11:04:21;;;;;;;2.60;1.80;;;20.60;56.40;;;;;;5044774;28;20099;-64
2022/08/08 11:07:06;;;;;;;2.13;1.92;;;20.70;56.60;;;;;;5043316;28;20057;-64
2022/08/08 11:09:54;;;;;;;3.45;2.17;;;20.70;56.10;;;;;;5036771;28;20052;-67
2022/08/08 11:12:21;;;;;;;3.40;2.10;;;20.60;56.70;;;;;;5039381;28;20044;-65
2022/08/08 11:14:58;;;;;;;2.38;2.15;;;20.60;56.70;;;;;;5040412;28;20118;-64
2022/08/08 11:17:30;;;;;;;1.80;1.60;;;20.60;57.10;;;;;;5030523;28;20098;-64
2022/08/08 11:20:23;;;;;;;2.47;2.13;;;20.60;57.00;;;;;;5035409;28;20054;-65
2022/08/08 11:22:58;;;;;;;1.80;1.70;;;20.60;57.00;;;;;;5038307;28;20072;-65
2022/08/08 11:25:28;;;;;;;2.30;2.10;;;20.60;57.30;;;;;;5032056;28;20501;-63
2022/08/08 11:28:24;;;;;;;2.33;2.00;;;20.60;57.00;;;;;;5031438;28;20064;-64
2022/08/08 11:31:00;;;;;;;1.88;1.77;;;20.60;56.90;;;;;;5035067;28;20302;-64
2022/08/08 11:33:33;;;;;;;2.35;2.15;;;20.60;56.60;;;;;;5025761;28;20141;-64
2022/08/08 11:36:21;;;;;;;;;;;20.60;56.90;;;;;;5030623;28;20545;-64
2022/08/08 11:38:55;;;;;;;3.38;2.33;;;20.60;56.60;;;;;;5033522;28;19936;-66
2022/08/08 11:41:24;;;;;;;2.20;2.10;;;20.60;56.80;;;;;;5061189;28;20336;-67
2022/08/08 11:44:00;;;;;;;1.90;1.65;;;20.50;56.60;;;;;;5030462;28;20044;-66
2022/08/08 11:46:28;;;;;;;2.35;2.25;;;20.50;56.70;;;;;;5036111;28;20057;-64
2022/08/08 11:49:06;;;;;;;2.97;2.22;;;20.60;56.40;;;;;;5031660;28;20090;-66
2022/08/08 11:51:35;;;;;;;3.15;1.98;;;20.60;56.60;;;;;;5036783;28;20482;-64
2022/08/08 11:54:08;;;;;;;1.95;1.83;;;20.60;56.60;;;;;;5033808;28;20417;-65
2022/08/08 11:57:07;;;;;;;3.30;2.03;;;20.50;56.80;;;;;;5036902;28;20142;-61
2022/08/08 11:59:57;;;;;;;3.67;2.38;;;20.40;56.70;;;;;;5041119;28;20052;-62
2022/08/08 12:02:32;;;;;;;4.47;1.92;;;20.40;57.10;;;;;;5041191;28;20041;-63
2022/08/08 12:05:09;;;;;;;2.08;1.98;;;20.30;57.20;;;;;;5037462;28;20052;-63
2022/08/08 12:07:52;;;;;;;2.10;1.92;;;20.30;57.50;;;;;;5036840;28;20107;-63
2022/08/08 12:10:24;;;;;;;1.98;1.83;;;20.20;57.90;;;;;;5038731;28;20053;-63
2022/08/08 12:13:07;;;;;;;2.85;2.45;;;20.20;58.10;;;;;;5034769;28;20524;-63
2022/08/08 12:15:38;;;;;;;1.98;1.88;;;20.30;58.00;;;;;;5034440;28;20362;-63
2022/08/08 12:18:26;;;;;;;11.43;2.92;;;20.30;58.20;;;;;;5040114;28;20045;-68
2022/08/08 12:20:56;;;;;;;8.90;2.78;;;20.40;58.60;;;;;;5026860;28;20375;-61
2022/08/08 12:23:34;;;;;;;5.10;2.03;;;20.60;58.00;;;;;;5033618;28;20483;-61
2022/08/08 12:26:30;;;;;;;2.35;2.15;;;20.90;57.60;;;;;;5031195;28;20095;-60
2022/08/08 12:29:19;;;;;;;3.42;2.40;;;21.00;57.50;;;;;;5034913;28;20072;-61
2022/08/08 12:32:12;;;;;;;3.35;2.08;;;21.10;57.00;;;;;;5041155;28;20407;-62
2022/08/08 12:35:02;;;;;;;2.20;2.10;;;21.20;56.80;;;;;;5065461;28;20501;-61
2022/08/08 12:37:34;;;;;;;2.15;2.03;;;21.30;56.60;;;;;;5039506;28;20500;-61
2022/08/08 12:40:15;;;;;;;2.70;2.50;;;21.30;56.50;;;;;;5040179;28;20045;-61
2022/08/08 12:42:51;;;;;;;3.17;2.03;;;21.30;56.30;;;;;;5040077;28;20053;-61
2022/08/08 12:45:19;;;;;;;2.60;2.28;;;21.40;56.30;;;;;;5040013;28;20140;-61
2022/08/08 12:48:20;;;;;;;2.20;1.90;;;21.40;56.50;;;;;;5035742;28;20509;-61
2022/08/08 12:51:05;;;;;;;2.67;2.47;;;21.40;56.80;;;;;;5041521;28;20056;-61
2022/08/08 12:53:55;;;;;;;2.30;2.10;;;21.50;56.90;;;;;;5031406;28;20045;-61
2022/08/08 12:56:37;;;;;;;3.40;2.10;;;21.50;56.90;;;;;;5045110;28;20049;-61
2022/08/08 12:59:17;;;;;;;2.70;2.08;;;21.50;57.00;;;;;;5038276;28;20574;-61
2022/08/08 13:02:00;;;;;;;2.58;2.38;;;21.50;57.10;;;;;;5039867;28;20045;-61
2022/08/08 13:04:34;;;;;;;2.88;2.45;;;21.50;57.30;;;;;;5047984;28;20053;-60
2022/08/08 13:07:04;;;;;;;2.50;2.30;;;21.50;57.30;;;;;;5049044;28;20037;-61
2022/08/08 13:09:45;;;;;;;3.90;1.95;;;21.60;57.50;;;;;;5036831;28;20478;-61
2022/08/08 13:12:36;;;;;;;2.65;2.20;;;21.50;57.30;;;;;;5038337;28;20143;-60
2022/08/08 13:15:15;;;;;;;2.55;2.35;;;21.60;57.50;;;;;;5041965;28;20049;-61
2022/08/08 13:17:45;;;;;;;3.05;2.03;;;21.60;57.40;;;;;;5038884;28;20045;-61
2022/08/08 13:20:33;;;;;;;3.08;2.17;;;21.70;57.50;;;;;;5033811;28;20045;-61
2022/08/08 13:23:00;;;;;;;2.30;2.20;;;21.70;57.40;;;;;;5038541;28;20045;-61
2022/08/08 13:25:48;;;;;;;3.83;2.33;;;21.70;57.30;;;;;;5040213;28;20124;-61
2022/08/08 13:28:30;;;;;;;2.90;2.30;;;21.70;57.30;;;;;;5041277;28;20051;-62
2022/08/08 13:31:00;;;;;;;3.05;2.28;;;21.80;57.10;;;;;;5041677;28;20049;-62
2022/08/08 13:33:31;;;;;;;2.33;2.22;;;21.80;57.10;;;;;;5040707;28;20414;-62
2022/08/08 13:36:10;;;;;;;3.05;2.05;;;21.80;56.80;;;;;;5033060;28;20312;-60
2022/08/08 13:38:37;;;;;;;3.90;2.72;;;21.80;56.90;;;;;;5032390;28;20132;-61
2022/08/08 13:41:06;;;;;;;3.58;2.25;;;21.80;56.80;;;;;;5037856;28;20151;-61
2022/08/08 13:43:45;;;;;;;2.90;2.45;;;21.80;56.90;;;;;;5044270;28;20080;-61
2022/08/08 13:46:15;;;;;;;2.38;2.20;;;21.80;56.90;;;;;;5042631;28;20045;-61
2022/08/08 13:48:55;;;;;;;2.55;2.35;;;21.80;56.90;;;;;;5039920;28;20068;-62
2022/08/08 13:52:00;;;;;;;2.63;2.40;;;21.80;57.00;;;;;;5038539;28;20627;-62
2022/08/08 13:54:30;;;;;;;2.30;2.15;;;21.80;57.00;;;;;;5041137;28;20045;-60
2022/08/08 14:00:41;;;;;;;2.55;2.00;;;21.80;57.00;;;;;;5036686;28;20048;-61
2022/08/08 14:03:12;;;;;;;2.15;2.05;;;21.90;57.00;;;;;;5036528;28;20056;-61
2022/08/08 14:06:09;;;;;;;3.65;2.75;;;21.90;56.90;;;;;;5036969;28;20080;-61
2022/08/08 14:08:56;;;;;;;5.32;2.55;;;22.00;56.70;;;;;;5035343;28;20061;-61
2022/08/08 14:11:28;;;;;;;5.95;2.55;;;22.00;56.50;;;;;;5036687;28;20100;-61
2022/08/08 14:13:59;;;;;;;5.43;2.38;;;22.00;56.40;;;;;;5036365;28;20084;-60
2022/08/08 14:16:30;;;;;;;3.63;2.20;;;22.00;56.40;;;;;;5036280;28;20136;-61
2022/08/08 14:19:02;;;;;;;2.47;2.25;;;22.00;56.50;;;;;;5036437;28;20405;-61